createdAt,value
2023-05-17T00:00:38.754Z,45.92
2023-05-17T00:01:38.754Z,45.92
2023-05-17T00:02:38.784Z,46.25
2023-05-17T00:03:38.781Z,46.57
2023-05-17T00:04:38.730Z,45.76
2023-05-17T00:05:38.723Z,45.76
2023-05-17T00:06:38.732Z,46.08
2023-05-17T00:07:38.683Z,45.12
2023-05-17T00:08:38.822Z,45.28
2023-05-17T00:09:38.658Z,45.28
2023-05-17T00:10:38.724Z,45.12
2023-05-17T00:11:38.671Z,44.63
2023-05-17T00:12:38.645Z,44.79
2023-05-17T00:13:38.669Z,44.96
2023-05-17T00:14:38.697Z,45.76
2023-05-17T00:15:38.671Z,45.44
2023-05-17T00:16:38.714Z,44.79
2023-05-17T00:17:38.792Z,45.76
2023-05-17T00:18:38.765Z,45.76
2023-05-17T00:19:38.681Z,46.08
2023-05-17T00:20:38.616Z,46.08
2023-05-17T00:21:38.631Z,45.76
2023-05-17T00:22:38.606Z,45.92
2023-05-17T00:23:38.660Z,45.92
2023-05-17T00:24:38.661Z,45.60
2023-05-17T00:25:38.604Z,45.60
2023-05-17T00:26:38.608Z,45.28
2023-05-17T00:27:38.608Z,46.25
2023-05-17T00:28:38.588Z,46.25
2023-05-17T00:29:38.620Z,45.92
2023-05-17T00:30:38.637Z,46.08
2023-05-17T00:31:38.588Z,45.76
2023-05-17T00:32:38.587Z,45.76
2023-05-17T00:33:38.593Z,46.73
2023-05-17T00:34:38.650Z,45.60
2023-05-17T00:35:38.549Z,45.60
2023-05-17T00:36:38.586Z,45.60
2023-05-17T00:37:38.550Z,45.60
2023-05-17T00:38:38.543Z,45.44
2023-05-17T00:39:38.552Z,45.28
2023-05-17T00:40:38.582Z,45.60
2023-05-17T00:41:38.533Z,45.60
2023-05-17T00:42:38.502Z,45.92
2023-05-17T00:43:38.559Z,45.60
2023-05-17T00:44:38.590Z,45.44
2023-05-17T00:45:38.508Z,45.60
2023-05-17T00:46:38.483Z,45.44
2023-05-17T00:47:38.566Z,45.44
2023-05-17T00:48:38.674Z,45.60
2023-05-17T00:49:38.512Z,45.44
2023-05-17T00:50:38.487Z,45.60
2023-05-17T00:51:38.451Z,45.92
2023-05-17T00:52:38.449Z,46.73
2023-05-17T00:53:38.506Z,46.25
2023-05-17T00:54:38.453Z,45.76
2023-05-17T00:55:38.499Z,46.08
2023-05-17T00:56:38.496Z,45.44
2023-05-17T00:57:38.521Z,45.44
2023-05-17T00:58:38.434Z,44.47
2023-05-17T00:59:38.443Z,44.31
2023-05-17T01:00:38.422Z,44.79
2023-05-17T01:01:39.442Z,44.79
2023-05-17T01:02:38.554Z,45.28
2023-05-17T01:03:38.557Z,46.25
2023-05-17T01:04:38.496Z,45.44
2023-05-17T01:05:38.493Z,47.37
2023-05-17T01:06:38.408Z,46.08
2023-05-17T01:07:38.384Z,46.73
2023-05-17T01:08:38.387Z,46.08
2023-05-17T01:09:38.377Z,45.76
2023-05-17T01:10:38.363Z,45.76
2023-05-17T01:11:38.385Z,45.60
2023-05-17T01:12:38.430Z,45.28
2023-05-17T01:13:38.371Z,45.76
2023-05-17T01:14:38.359Z,46.25
2023-05-17T01:15:38.389Z,47.05
2023-05-17T01:16:38.338Z,46.89
2023-05-17T01:17:38.415Z,45.60
2023-05-17T01:18:38.485Z,45.76
2023-05-17T01:19:38.364Z,45.44
2023-05-17T01:20:38.420Z,45.44
2023-05-17T01:21:38.315Z,45.76
2023-05-17T01:22:38.340Z,45.60
2023-05-17T01:23:38.309Z,45.44
2023-05-17T01:24:38.293Z,45.60
2023-05-17T01:25:38.307Z,45.44
2023-05-17T01:26:38.298Z,45.60
2023-05-17T01:27:38.304Z,45.44
2023-05-17T01:28:38.339Z,45.44
2023-05-17T01:29:38.274Z,45.76
2023-05-17T01:30:38.270Z,45.60
2023-05-17T01:31:38.256Z,46.57
2023-05-17T01:32:38.267Z,46.57
2023-05-17T01:33:38.439Z,46.25
2023-05-17T01:34:38.238Z,46.73
2023-05-17T01:35:38.227Z,46.08
2023-05-17T01:36:38.225Z,45.44
2023-05-17T01:37:38.213Z,46.08
2023-05-17T01:38:38.262Z,46.08
2023-05-17T01:39:38.208Z,45.92
2023-05-17T01:40:38.205Z,45.92
2023-05-17T01:41:38.241Z,45.44
2023-05-17T01:42:38.184Z,45.60
2023-05-17T01:43:38.239Z,45.60
2023-05-17T01:44:38.239Z,45.44
2023-05-17T01:45:38.212Z,45.60
2023-05-17T01:46:38.160Z,45.44
2023-05-17T01:47:38.306Z,45.60
2023-05-17T01:48:38.222Z,45.92
2023-05-17T01:49:38.187Z,45.60
2023-05-17T01:50:38.310Z,45.92
2023-05-17T01:51:38.171Z,47.05
2023-05-17T01:52:38.150Z,46.41
2023-05-17T01:53:38.140Z,46.25
2023-05-17T01:54:38.193Z,46.25
2023-05-17T01:55:38.168Z,45.76
2023-05-17T01:56:38.135Z,46.41
2023-05-17T01:57:38.104Z,46.57
2023-05-17T01:58:38.129Z,45.92
2023-05-17T01:59:38.120Z,46.57
2023-05-17T02:00:38.197Z,46.57
2023-05-17T02:01:38.173Z,45.92
2023-05-17T02:02:38.154Z,46.08
2023-05-17T02:03:38.178Z,45.60
2023-05-17T02:04:38.123Z,45.92
2023-05-17T02:05:38.085Z,46.25
2023-05-17T02:06:38.101Z,47.53
2023-05-17T02:07:38.073Z,47.70
2023-05-17T02:08:38.063Z,49.79
2023-05-17T02:09:38.065Z,48.18
2023-05-17T02:10:38.058Z,46.25
2023-05-17T02:11:38.074Z,46.41
2023-05-17T02:12:38.088Z,46.25
2023-05-17T02:13:38.052Z,46.25
2023-05-17T02:14:38.065Z,46.08
2023-05-17T02:15:38.045Z,58.65
2023-05-17T02:16:38.124Z,56.72
2023-05-17T02:17:38.138Z,57.04
2023-05-17T02:18:38.114Z,57.04
2023-05-17T02:19:38.081Z,57.04
2023-05-17T02:20:38.023Z,52.69
2023-05-17T02:21:38.003Z,47.05
2023-05-17T02:22:38.040Z,46.25
2023-05-17T02:23:38.034Z,46.73
2023-05-17T02:24:37.994Z,46.57
2023-05-17T02:25:37.985Z,46.25
2023-05-17T02:26:37.988Z,46.25
2023-05-17T02:27:37.991Z,46.89
2023-05-17T02:28:38.002Z,46.41
2023-05-17T02:29:37.965Z,46.25
2023-05-17T02:30:37.955Z,46.89
2023-05-17T02:31:37.956Z,48.34
2023-05-17T02:32:37.983Z,45.44
2023-05-17T02:33:38.101Z,45.12
2023-05-17T02:34:37.980Z,45.44
2023-05-17T02:35:37.945Z,46.41
2023-05-17T02:36:37.933Z,45.44
2023-05-17T02:37:37.936Z,45.44
2023-05-17T02:38:37.935Z,45.92
2023-05-17T02:39:37.941Z,45.12
2023-05-17T02:40:37.953Z,45.44
2023-05-17T02:41:37.890Z,45.60
2023-05-17T02:42:38.922Z,46.73
2023-05-17T02:43:37.911Z,45.92
2023-05-17T02:44:37.946Z,46.41
2023-05-17T02:45:37.884Z,46.73
2023-05-17T02:46:38.736Z,46.41
2023-05-17T02:47:38.948Z,47.21
2023-05-17T02:48:37.857Z,47.21
2023-05-17T02:49:37.886Z,47.05
2023-05-17T02:50:37.852Z,46.73
2023-05-17T02:51:37.821Z,47.53
2023-05-17T02:52:37.833Z,47.05
2023-05-17T02:53:37.824Z,45.92
2023-05-17T02:54:37.836Z,46.41
2023-05-17T02:55:37.833Z,46.73
2023-05-17T02:56:37.824Z,47.05
2023-05-17T02:57:37.842Z,47.05
2023-05-17T02:58:37.794Z,47.86
2023-05-17T02:59:37.813Z,47.37
2023-05-17T03:00:37.817Z,45.76
2023-05-17T03:01:37.816Z,46.57
2023-05-17T03:02:37.830Z,46.57
2023-05-17T03:03:38.004Z,48.66
2023-05-17T03:04:37.798Z,47.05
2023-05-17T03:05:37.776Z,47.05
2023-05-17T03:06:37.772Z,46.57
2023-05-17T03:07:37.772Z,47.53
2023-05-17T03:08:37.750Z,47.05
2023-05-17T03:09:37.737Z,47.37
2023-05-17T03:10:37.732Z,47.86
2023-05-17T03:11:37.773Z,48.66
2023-05-17T03:12:37.775Z,48.98
2023-05-17T03:13:37.742Z,49.63
2023-05-17T03:14:37.709Z,49.95
2023-05-17T03:15:37.746Z,48.66
2023-05-17T03:16:37.705Z,47.53
2023-05-17T03:17:37.883Z,46.89
2023-05-17T03:18:37.791Z,47.05
2023-05-17T03:19:37.700Z,48.34
2023-05-17T03:20:37.735Z,47.37
2023-05-17T03:21:37.708Z,46.73
2023-05-17T03:22:37.770Z,49.63
2023-05-17T03:23:37.762Z,49.15
2023-05-17T03:24:37.650Z,48.66
2023-05-17T03:25:37.659Z,48.66
2023-05-17T03:26:37.647Z,48.34
2023-05-17T03:27:37.797Z,48.98
2023-05-17T03:28:37.685Z,48.98
2023-05-17T03:29:37.708Z,50.60
2023-05-17T03:30:37.667Z,49.47
2023-05-17T03:31:37.623Z,47.21
2023-05-17T03:32:37.729Z,48.18
2023-05-17T03:33:37.747Z,48.18
2023-05-17T03:34:37.660Z,51.08
2023-05-17T03:35:37.603Z,50.43
2023-05-17T03:36:37.615Z,50.11
2023-05-17T03:37:37.598Z,50.27
2023-05-17T03:38:37.647Z,48.18
2023-05-17T03:39:37.592Z,49.47
2023-05-17T03:40:37.579Z,48.82
2023-05-17T03:41:37.631Z,48.50
2023-05-17T03:42:37.629Z,50.76
2023-05-17T03:43:37.568Z,49.31
2023-05-17T03:44:37.606Z,47.21
2023-05-17T03:45:37.627Z,47.37
2023-05-17T03:46:37.559Z,47.53
2023-05-17T03:47:37.656Z,49.47
2023-05-17T03:48:37.588Z,47.53
2023-05-17T03:49:37.611Z,49.47
2023-05-17T03:50:37.529Z,51.08
2023-05-17T03:51:37.672Z,51.56
2023-05-17T03:52:37.585Z,48.98
2023-05-17T03:53:37.519Z,49.63
2023-05-17T03:54:37.526Z,50.11
2023-05-17T03:55:37.657Z,48.82
2023-05-17T03:56:37.517Z,49.95
2023-05-17T03:57:37.515Z,48.66
2023-05-17T03:58:37.538Z,49.31
2023-05-17T03:59:37.479Z,47.53
2023-05-17T04:00:37.506Z,47.86
2023-05-17T04:01:37.489Z,52.53
2023-05-17T04:02:37.486Z,48.98
2023-05-17T04:03:37.550Z,49.79
2023-05-17T04:04:37.494Z,49.95
2023-05-17T04:05:37.580Z,52.37
2023-05-17T04:06:37.426Z,52.05
2023-05-17T04:07:37.459Z,48.18
2023-05-17T04:08:37.913Z,48.34
2023-05-17T04:09:37.434Z,50.43
2023-05-17T04:10:38.071Z,50.76
2023-05-17T04:11:38.457Z,50.92
2023-05-17T04:12:37.453Z,51.08
2023-05-17T04:13:37.474Z,51.08
2023-05-17T04:14:37.394Z,49.63
2023-05-17T04:15:37.413Z,51.72
2023-05-17T04:16:37.383Z,50.92
2023-05-17T04:17:37.401Z,49.15
2023-05-17T04:18:37.534Z,50.92
2023-05-17T04:19:37.416Z,50.27
2023-05-17T04:20:37.407Z,49.47
2023-05-17T04:21:37.350Z,50.43
2023-05-17T04:22:37.362Z,51.24
2023-05-17T04:23:37.418Z,50.76
2023-05-17T04:24:37.404Z,49.31
2023-05-17T04:25:37.356Z,50.76
2023-05-17T04:26:37.366Z,52.53
2023-05-17T04:27:37.365Z,50.60
2023-05-17T04:28:37.380Z,50.27
2023-05-17T04:29:37.354Z,52.05
2023-05-17T04:30:37.333Z,51.56
2023-05-17T04:31:37.332Z,52.05
2023-05-17T04:32:37.366Z,52.05
2023-05-17T04:33:37.421Z,52.69
2023-05-17T04:34:37.296Z,52.53
2023-05-17T04:35:37.320Z,50.92
2023-05-17T04:36:37.292Z,49.95
2023-05-17T04:37:37.325Z,54.14
2023-05-17T04:38:38.133Z,51.56
2023-05-17T04:39:37.287Z,52.21
2023-05-17T04:40:37.316Z,50.11
2023-05-17T04:41:37.305Z,52.53
2023-05-17T04:42:37.297Z,52.21
2023-05-17T04:43:37.280Z,51.08
2023-05-17T04:44:37.298Z,50.92
2023-05-17T04:45:37.307Z,50.27
2023-05-17T04:46:37.285Z,52.21
2023-05-17T04:47:37.332Z,51.40
2023-05-17T04:48:38.304Z,52.37
2023-05-17T04:49:37.265Z,51.88
2023-05-17T04:50:37.257Z,50.27
2023-05-17T04:51:37.236Z,51.56
2023-05-17T04:52:37.286Z,51.40
2023-05-17T04:53:37.225Z,49.63
2023-05-17T04:54:37.235Z,48.34
2023-05-17T04:55:37.209Z,49.47
2023-05-17T04:56:37.282Z,49.95
2023-05-17T04:57:37.271Z,49.15
2023-05-17T04:58:37.290Z,49.95
2023-05-17T04:59:37.216Z,50.11
2023-05-17T05:00:37.195Z,48.66
2023-05-17T05:01:37.201Z,48.34
2023-05-17T05:02:37.197Z,53.01
2023-05-17T05:03:37.201Z,53.01
2023-05-17T05:04:37.202Z,49.47
2023-05-17T05:05:37.158Z,49.47
2023-05-17T05:06:37.200Z,48.50
2023-05-17T05:07:37.196Z,49.31
2023-05-17T05:08:37.199Z,48.66
2023-05-17T05:09:37.140Z,49.31
2023-05-17T05:10:37.147Z,48.66
2023-05-17T05:11:37.219Z,48.66
2023-05-17T05:12:37.186Z,49.15
2023-05-17T05:13:37.155Z,48.82
2023-05-17T05:14:37.198Z,48.02
2023-05-17T05:15:37.115Z,48.82
2023-05-17T05:16:37.108Z,50.11
2023-05-17T05:17:37.217Z,48.82
2023-05-17T05:18:37.326Z,49.47
2023-05-17T05:19:37.172Z,48.98
2023-05-17T05:20:37.080Z,48.66
2023-05-17T05:21:37.092Z,49.15
2023-05-17T05:22:37.085Z,48.82
2023-05-17T05:23:37.199Z,48.34
2023-05-17T05:24:37.106Z,49.47
2023-05-17T05:25:37.052Z,48.98
2023-05-17T05:26:37.179Z,49.95
2023-05-17T05:27:37.162Z,50.11
2023-05-17T05:28:37.100Z,48.18
2023-05-17T05:29:37.105Z,48.98
2023-05-17T05:30:37.067Z,49.47
2023-05-17T05:31:37.060Z,48.82
2023-05-17T05:32:37.180Z,50.11
2023-05-17T05:33:37.141Z,50.60
2023-05-17T05:34:37.078Z,50.27
2023-05-17T05:35:37.033Z,50.27
2023-05-17T05:36:37.030Z,49.31
2023-05-17T05:37:37.054Z,49.47
2023-05-17T05:38:37.005Z,50.43
2023-05-17T05:39:37.036Z,48.50
2023-05-17T05:40:37.016Z,48.34
2023-05-17T05:41:37.080Z,51.08
2023-05-17T05:42:36.986Z,48.02
2023-05-17T05:43:36.997Z,48.18
2023-05-17T05:44:37.059Z,49.63
2023-05-17T05:45:36.986Z,48.18
2023-05-17T05:46:36.979Z,47.86
2023-05-17T05:47:37.022Z,49.95
2023-05-17T05:48:37.011Z,49.95
2023-05-17T05:49:36.957Z,49.79
2023-05-17T05:50:37.001Z,48.98
2023-05-17T05:51:36.945Z,48.82
2023-05-17T05:52:38.041Z,49.63
2023-05-17T05:53:37.936Z,49.47
2023-05-17T05:54:36.952Z,50.92
2023-05-17T05:55:36.969Z,49.47
2023-05-17T05:56:36.950Z,47.86
2023-05-17T05:57:36.964Z,49.79
2023-05-17T05:58:36.910Z,49.95
2023-05-17T05:59:36.910Z,50.76
2023-05-17T06:00:37.025Z,50.92
2023-05-17T06:01:38.105Z,49.47
2023-05-17T06:02:36.933Z,49.31
2023-05-17T06:03:36.913Z,48.82
2023-05-17T06:04:45.313Z,48.50
2023-05-17T06:05:39.029Z,48.02
2023-05-17T06:06:37.203Z,47.21
2023-05-17T06:07:36.891Z,47.86
2023-05-17T06:08:36.891Z,47.70
2023-05-17T06:09:36.856Z,47.86
2023-05-17T06:10:36.851Z,48.82
2023-05-17T06:11:36.873Z,48.02
2023-05-17T06:12:36.868Z,48.02
2023-05-17T06:13:36.886Z,49.15
2023-05-17T06:14:36.850Z,48.18
2023-05-17T06:15:36.825Z,47.70
2023-05-17T06:16:36.966Z,48.02
2023-05-17T06:17:36.856Z,47.86
2023-05-17T06:18:38.017Z,48.98
2023-05-17T06:19:37.095Z,47.70
2023-05-17T06:20:36.991Z,48.02
2023-05-17T06:21:36.894Z,48.82
2023-05-17T06:22:36.794Z,49.31
2023-05-17T06:23:36.796Z,49.47
2023-05-17T06:24:37.003Z,50.76
2023-05-17T06:25:36.844Z,50.92
2023-05-17T06:26:36.765Z,50.43
2023-05-17T06:27:37.829Z,50.60
2023-05-17T06:28:36.829Z,50.11
2023-05-17T06:29:36.790Z,48.98
2023-05-17T06:30:36.854Z,49.15
2023-05-17T06:31:36.769Z,48.82
2023-05-17T06:32:36.889Z,48.98
2023-05-17T06:33:36.740Z,48.34
2023-05-17T06:34:36.744Z,49.31
2023-05-17T06:35:51.641Z,49.15
2023-05-17T06:36:38.891Z,48.82
2023-05-17T06:37:36.709Z,49.63
2023-05-17T06:38:36.708Z,49.63
2023-05-17T06:39:36.981Z,48.50
2023-05-17T06:40:37.016Z,50.60
2023-05-17T06:41:36.692Z,49.47
2023-05-17T06:42:36.690Z,48.98
2023-05-17T06:43:37.691Z,48.98
2023-05-17T06:44:36.778Z,48.82
2023-05-17T06:45:36.855Z,48.34
2023-05-17T06:46:36.669Z,48.82
2023-05-17T06:47:36.820Z,47.05
2023-05-17T06:48:36.708Z,47.53
2023-05-17T06:49:36.640Z,47.05
2023-05-17T06:50:36.656Z,46.41
2023-05-17T06:51:36.635Z,47.21
2023-05-17T06:52:36.656Z,47.21
2023-05-17T06:53:36.643Z,46.73
2023-05-17T06:54:36.747Z,47.21
2023-05-17T06:55:36.636Z,47.53
2023-05-17T06:56:36.743Z,47.21
2023-05-17T06:57:36.614Z,48.50
2023-05-17T06:58:36.606Z,47.37
2023-05-17T06:59:36.592Z,47.53
2023-05-17T07:00:37.589Z,49.47
2023-05-17T07:01:36.584Z,47.70
2023-05-17T07:02:36.642Z,47.70
2023-05-17T07:03:36.784Z,47.70
2023-05-17T07:04:36.756Z,47.05
2023-05-17T07:05:36.674Z,46.89
2023-05-17T07:06:36.546Z,47.86
2023-05-17T07:07:37.572Z,49.63
2023-05-17T07:08:36.560Z,49.95
2023-05-17T07:09:36.533Z,48.82
2023-05-17T07:10:36.572Z,49.95
2023-05-17T07:11:36.666Z,50.43
2023-05-17T07:12:36.562Z,49.15
2023-05-17T07:13:36.744Z,49.63
2023-05-17T07:14:36.557Z,49.31
2023-05-17T07:15:36.535Z,49.63
2023-05-17T07:16:36.511Z,48.98
2023-05-17T07:17:37.106Z,49.79
2023-05-17T07:18:36.593Z,49.63
2023-05-17T07:19:36.578Z,48.66
2023-05-17T07:20:36.569Z,49.95
2023-05-17T07:21:36.549Z,50.11
2023-05-17T07:22:36.479Z,48.98
2023-05-17T07:23:36.474Z,48.82
2023-05-17T07:24:36.614Z,49.63
2023-05-17T07:25:36.490Z,48.82
2023-05-17T07:26:36.453Z,48.98
2023-05-17T07:27:36.459Z,49.47
2023-05-17T07:28:37.123Z,49.79
2023-05-17T07:29:36.449Z,49.47
2023-05-17T07:30:36.637Z,49.15
2023-05-17T07:31:36.420Z,48.34
2023-05-17T07:32:36.468Z,47.21
2023-05-17T07:33:36.437Z,47.53
2023-05-17T07:34:36.501Z,47.70
2023-05-17T07:35:36.415Z,47.70
2023-05-17T07:36:36.515Z,46.73
2023-05-17T07:37:37.688Z,47.53
2023-05-17T07:38:36.424Z,47.05
2023-05-17T07:39:36.385Z,47.05
2023-05-17T07:40:36.364Z,48.18
2023-05-17T07:41:36.388Z,47.70
2023-05-17T07:42:36.373Z,48.34
2023-05-17T07:43:37.253Z,46.89
2023-05-17T07:44:36.368Z,47.53
2023-05-17T07:45:37.012Z,47.53
2023-05-17T07:46:36.372Z,47.86
2023-05-17T07:47:38.068Z,47.53
2023-05-17T07:48:36.476Z,47.21
2023-05-17T07:49:36.316Z,47.05
2023-05-17T07:50:36.350Z,46.73
2023-05-17T07:51:36.301Z,47.53
2023-05-17T07:52:36.381Z,47.37
2023-05-17T07:53:37.485Z,47.70
2023-05-17T07:54:37.337Z,47.05
2023-05-17T07:55:36.287Z,46.08
2023-05-17T07:56:37.170Z,45.28
2023-05-17T07:57:37.005Z,46.57
2023-05-17T07:58:36.270Z,46.57
2023-05-17T07:59:36.245Z,46.25
2023-05-17T08:00:36.276Z,45.76
2023-05-17T08:01:36.949Z,46.25
2023-05-17T08:02:36.333Z,48.34
2023-05-17T08:03:36.260Z,47.05
2023-05-17T08:04:36.354Z,46.73
2023-05-17T08:05:36.258Z,47.37
2023-05-17T08:06:36.213Z,47.21
2023-05-17T08:07:36.226Z,46.57
2023-05-17T08:08:36.328Z,48.18
2023-05-17T08:09:36.188Z,47.05
2023-05-17T08:10:36.411Z,45.76
2023-05-17T08:11:36.206Z,46.57
2023-05-17T08:12:36.186Z,47.05
2023-05-17T08:13:36.216Z,45.76
2023-05-17T08:14:36.149Z,47.21
2023-05-17T08:15:36.177Z,47.37
2023-05-17T08:16:36.142Z,47.86
2023-05-17T08:17:36.383Z,47.86
2023-05-17T08:18:36.327Z,47.86
2023-05-17T08:19:36.352Z,48.18
2023-05-17T08:20:36.154Z,48.66
2023-05-17T08:21:36.154Z,47.05
2023-05-17T08:22:36.147Z,47.70
2023-05-17T08:23:36.077Z,47.70
2023-05-17T08:24:36.083Z,47.05
2023-05-17T08:25:37.034Z,47.21
2023-05-17T08:26:36.165Z,47.70
2023-05-17T08:27:36.060Z,47.70
2023-05-17T08:28:36.100Z,46.89
2023-05-17T08:29:37.570Z,47.70
2023-05-17T08:30:36.036Z,47.86
2023-05-17T08:31:36.022Z,46.57
2023-05-17T08:32:36.090Z,48.02
2023-05-17T08:33:36.192Z,47.53
2023-05-17T08:34:36.009Z,49.79
2023-05-17T08:35:35.997Z,48.98
2023-05-17T08:36:36.025Z,48.50
2023-05-17T08:37:35.995Z,48.82
2023-05-17T08:38:35.997Z,48.66
2023-05-17T08:39:35.971Z,48.18
2023-05-17T08:40:36.184Z,49.15
2023-05-17T08:41:38.660Z,48.02
2023-05-17T08:42:35.951Z,48.34
2023-05-17T08:43:35.947Z,48.34
2023-05-17T08:44:35.923Z,48.98
2023-05-17T08:45:35.946Z,48.02
2023-05-17T08:46:35.895Z,48.98
2023-05-17T08:47:35.914Z,48.98
2023-05-17T08:48:36.008Z,48.98
2023-05-17T08:49:35.930Z,47.53
2023-05-17T08:50:35.915Z,48.82
2023-05-17T08:51:35.940Z,48.02
2023-05-17T08:52:36.480Z,49.15
2023-05-17T08:53:35.892Z,49.47
2023-05-17T08:54:35.892Z,48.98
2023-05-17T08:55:35.836Z,49.15
2023-05-17T08:56:35.921Z,48.98
2023-05-17T08:57:35.846Z,48.82
2023-05-17T08:58:48.102Z,48.98
2023-05-17T08:59:37.824Z,48.18
2023-05-17T09:00:35.795Z,47.05
2023-05-17T09:01:35.830Z,48.02
2023-05-17T09:02:35.931Z,52.05
2023-05-17T09:03:35.924Z,51.56
2023-05-17T09:04:35.882Z,47.05
2023-05-17T09:05:35.779Z,47.70
2023-05-17T09:06:35.810Z,48.66
2023-05-17T09:07:35.764Z,49.15
2023-05-17T09:08:35.785Z,48.50
2023-05-17T09:09:35.812Z,47.21
2023-05-17T09:10:35.736Z,48.02
2023-05-17T09:11:35.782Z,47.86
2023-05-17T09:12:35.815Z,46.25
2023-05-17T09:13:35.708Z,46.73
2023-05-17T09:14:35.725Z,46.41
2023-05-17T09:15:35.714Z,46.25
2023-05-17T09:16:35.704Z,46.57
2023-05-17T09:17:35.728Z,49.15
2023-05-17T09:18:35.836Z,47.86
2023-05-17T09:19:35.802Z,48.18
2023-05-17T09:20:35.955Z,48.82
2023-05-17T09:21:35.658Z,48.02
2023-05-17T09:22:35.672Z,49.31
2023-05-17T09:23:35.642Z,49.95
2023-05-17T09:24:35.672Z,48.66
2023-05-17T09:25:35.641Z,49.31
2023-05-17T09:26:35.608Z,49.79
2023-05-17T09:27:35.623Z,50.76
2023-05-17T09:28:35.592Z,49.47
2023-05-17T09:29:35.635Z,50.11
2023-05-17T09:30:35.635Z,49.47
2023-05-17T09:31:35.684Z,48.50
2023-05-17T09:32:35.634Z,50.27
2023-05-17T09:33:35.673Z,50.11
2023-05-17T09:34:35.603Z,50.11
2023-05-17T09:35:35.550Z,48.82
2023-05-17T09:36:35.532Z,49.79
2023-05-17T09:37:35.536Z,49.47
2023-05-17T09:38:35.535Z,48.34
2023-05-17T09:39:35.553Z,48.50
2023-05-17T09:40:35.509Z,48.02
2023-05-17T09:41:35.510Z,48.18
2023-05-17T09:42:35.505Z,45.92
2023-05-17T09:43:35.540Z,46.25
2023-05-17T09:44:35.540Z,45.76
2023-05-17T09:45:35.495Z,45.60
2023-05-17T09:46:35.457Z,46.57
2023-05-17T09:47:35.532Z,46.41
2023-05-17T09:48:35.550Z,45.92
2023-05-17T09:49:35.435Z,46.73
2023-05-17T09:50:35.460Z,47.05
2023-05-17T09:51:35.437Z,47.53
2023-05-17T09:52:35.408Z,47.21
2023-05-17T09:53:35.420Z,48.82
2023-05-17T09:54:35.388Z,48.02
2023-05-17T09:55:35.422Z,47.70
2023-05-17T09:56:35.448Z,47.21
2023-05-17T09:57:35.372Z,47.37
2023-05-17T09:58:35.381Z,47.05
2023-05-17T09:59:35.379Z,48.34
2023-05-17T10:00:35.515Z,48.82
2023-05-17T10:01:35.396Z,49.47
2023-05-17T10:02:35.475Z,50.11
2023-05-17T10:03:35.430Z,49.15
2023-05-17T10:04:35.406Z,48.18
2023-05-17T10:05:35.508Z,47.21
2023-05-17T10:06:45.321Z,46.25
2023-05-17T10:07:37.318Z,47.05
2023-05-17T10:08:35.308Z,45.28
2023-05-17T10:09:35.285Z,44.47
2023-05-17T10:10:35.269Z,41.89
2023-05-17T10:11:35.321Z,44.47
2023-05-17T10:12:35.320Z,46.08
2023-05-17T10:13:35.286Z,44.47
2023-05-17T10:14:35.259Z,47.37
2023-05-17T10:15:35.247Z,47.70
2023-05-17T10:16:35.255Z,47.70
2023-05-17T10:17:35.294Z,47.05
2023-05-17T10:18:35.361Z,48.18
2023-05-17T10:19:35.342Z,47.70
2023-05-17T10:20:35.241Z,47.70
2023-05-17T10:21:35.250Z,47.70
2023-05-17T10:22:35.214Z,45.92
2023-05-17T10:23:35.193Z,45.76
2023-05-17T10:24:35.185Z,45.28
2023-05-17T10:25:35.171Z,44.96
2023-05-17T10:26:35.177Z,45.60
2023-05-17T10:27:35.178Z,46.57
2023-05-17T10:28:35.177Z,46.57
2023-05-17T10:29:35.133Z,46.25
2023-05-17T10:30:35.130Z,46.25
2023-05-17T10:31:35.101Z,46.73
2023-05-17T10:32:35.284Z,47.70
2023-05-17T10:33:35.213Z,45.60
2023-05-17T10:34:35.104Z,45.92
2023-05-17T10:35:35.113Z,47.21
2023-05-17T10:36:35.129Z,47.70
2023-05-17T10:37:35.076Z,47.21
2023-05-17T10:38:42.005Z,47.37
2023-05-17T10:39:37.157Z,47.21
2023-05-17T10:40:35.050Z,48.02
2023-05-17T10:41:36.069Z,46.25
2023-05-17T10:42:35.063Z,45.92
2023-05-17T10:43:35.049Z,45.76
2023-05-17T10:44:35.046Z,47.21
2023-05-17T10:45:35.012Z,45.28
2023-05-17T10:46:35.018Z,46.57
2023-05-17T10:47:35.061Z,47.86
2023-05-17T10:48:35.022Z,48.82
2023-05-17T10:49:35.108Z,48.02
2023-05-17T10:50:34.964Z,48.34
2023-05-17T10:51:35.675Z,48.66
2023-05-17T10:52:35.019Z,49.15
2023-05-17T10:53:34.960Z,48.18
2023-05-17T10:54:34.994Z,48.02
2023-05-17T10:55:34.946Z,47.37
2023-05-17T10:56:34.931Z,46.57
2023-05-17T10:57:49.284Z,47.05
2023-05-17T10:58:36.917Z,47.37
2023-05-17T10:59:34.957Z,46.08
2023-05-17T11:00:34.896Z,46.41
2023-05-17T11:01:34.918Z,46.25
2023-05-17T11:02:35.031Z,47.05
2023-05-17T11:03:34.888Z,47.53
2023-05-17T11:04:35.072Z,44.63
2023-05-17T11:05:34.902Z,43.83
2023-05-17T11:06:34.940Z,43.99
2023-05-17T11:07:35.032Z,45.12
2023-05-17T11:08:34.869Z,44.79
2023-05-17T11:09:34.871Z,42.86
2023-05-17T11:10:34.824Z,44.79
2023-05-17T11:11:34.823Z,46.57
2023-05-17T11:12:36.570Z,48.18
2023-05-17T11:13:34.833Z,46.25
2023-05-17T11:14:34.844Z,45.92
2023-05-17T11:15:34.826Z,46.57
2023-05-17T11:16:34.879Z,45.60
2023-05-17T11:17:34.808Z,46.89
2023-05-17T11:18:39.017Z,46.89
2023-05-17T11:19:36.966Z,47.53
2023-05-17T11:20:35.296Z,48.02
2023-05-17T11:21:34.822Z,48.66
2023-05-17T11:22:34.809Z,49.95
2023-05-17T11:23:34.757Z,49.15
2023-05-17T11:24:34.734Z,49.63
2023-05-17T11:25:34.747Z,48.82
2023-05-17T11:26:34.836Z,47.05
2023-05-17T11:27:34.760Z,46.41
2023-05-17T11:28:34.711Z,48.18
2023-05-17T11:29:34.753Z,46.89
2023-05-17T11:30:34.686Z,51.08
2023-05-17T11:31:34.710Z,48.34
2023-05-17T11:32:34.751Z,51.56
2023-05-17T11:33:34.740Z,52.53
2023-05-17T11:34:34.840Z,50.11
2023-05-17T11:35:34.679Z,51.56
2023-05-17T11:36:34.658Z,45.28
2023-05-17T11:37:34.665Z,50.92
2023-05-17T11:38:34.849Z,48.66
2023-05-17T11:39:34.672Z,48.50
2023-05-17T11:40:34.630Z,45.76
2023-05-17T11:41:34.621Z,44.63
2023-05-17T11:42:34.618Z,44.63
2023-05-17T11:43:34.644Z,45.12
2023-05-17T11:44:34.634Z,43.34
2023-05-17T11:45:34.595Z,45.12
2023-05-17T11:46:34.635Z,45.76
2023-05-17T11:47:34.778Z,47.37
2023-05-17T11:48:34.699Z,48.02
2023-05-17T11:49:36.692Z,47.70
2023-05-17T11:50:35.597Z,45.76
2023-05-17T11:51:34.577Z,46.41
2023-05-17T11:52:34.550Z,46.57
2023-05-17T11:53:34.518Z,46.73
2023-05-17T11:54:34.601Z,45.76
2023-05-17T11:55:34.534Z,45.60
2023-05-17T11:56:42.578Z,47.21
2023-05-17T11:57:37.803Z,47.05
2023-05-17T11:58:34.508Z,47.53
2023-05-17T11:59:34.485Z,45.28
2023-05-17T12:00:34.525Z,46.25
2023-05-17T12:01:34.503Z,46.41
2023-05-17T12:02:35.515Z,46.73
2023-05-17T12:03:34.481Z,46.25
2023-05-17T12:04:34.461Z,45.44
2023-05-17T12:05:34.487Z,43.67
2023-05-17T12:06:34.525Z,41.25
2023-05-17T12:07:42.664Z,42.86
2023-05-17T12:08:36.318Z,44.47
2023-05-17T12:09:36.971Z,44.31
2023-05-17T12:10:40.900Z,43.67
2023-05-17T12:11:48.366Z,44.15
2023-05-17T12:12:35.634Z,44.63
2023-05-17T12:13:40.802Z,44.79
2023-05-17T12:14:36.340Z,45.12
2023-05-17T12:15:36.706Z,44.79
2023-05-17T12:16:42.561Z,45.44
2023-05-17T12:17:37.121Z,45.60
2023-05-17T12:18:42.537Z,45.76
2023-05-17T12:19:39.401Z,46.08
2023-05-17T12:20:37.099Z,44.96
2023-05-17T12:21:37.463Z,44.63
2023-05-17T12:22:39.165Z,45.44
2023-05-17T12:23:36.002Z,45.76
2023-05-17T12:24:36.079Z,47.21
2023-05-17T12:25:44.261Z,46.08
2023-05-17T12:26:37.707Z,46.25
2023-05-17T12:27:50.627Z,47.37
2023-05-17T12:28:38.000Z,47.37
2023-05-17T12:29:35.185Z,47.21
2023-05-17T12:30:36.555Z,45.28
2023-05-17T12:31:38.239Z,46.08
2023-05-17T12:32:39.070Z,45.76
2023-05-17T12:33:43.733Z,44.96
2023-05-17T12:34:57.993Z,44.31
2023-05-17T12:36:00.592Z,44.47
2023-05-17T12:36:43.978Z,44.79
2023-05-17T12:37:41.916Z,46.57
2023-05-17T12:38:36.638Z,44.31
2023-05-17T12:39:46.486Z,44.31
2023-05-17T12:43:28.672Z,46.73
2023-05-17T12:44:26.667Z,47.37
2023-05-17T12:45:24.677Z,49.31
2023-05-17T12:46:22.724Z,48.18
2023-05-17T12:47:20.437Z,48.18
2023-05-17T12:48:20.452Z,47.70
2023-05-17T12:49:21.121Z,47.86
2023-05-17T12:50:20.506Z,48.18
2023-05-17T12:51:20.424Z,48.98
2023-05-17T12:52:20.444Z,47.37
2023-05-17T12:53:20.402Z,47.21
2023-05-17T12:54:20.384Z,45.76
2023-05-17T12:55:20.455Z,46.41